Time;durP1;ratioP1;P1;durP2;ratioP2;P2;SDS_P1;SDS_P2;PMS_P1;PMS_P2;Temp;Humidity;BMP_temperature;BMP_pressure;BME280_temperature;BME280_humidity;BME280_pressure;Samples;Min_cycle;Max_cycle;Signal;HPM_P1;HPM_P2
2022/05/16 00:02:02;;;;;;;8.50;2.50;;;18.20;99.90;;;;;;5065820;28;39474;-75
2022/05/16 00:04:28;;;;;;;15.52;2.50;;;18.20;99.90;;;;;;5070597;28;48216;-76
2022/05/16 00:06:54;;;;;;;11.75;2.50;;;18.20;99.90;;;;;;5078700;28;38032;-75
2022/05/16 00:09:20;;;;;;;8.32;2.28;;;18.20;99.90;;;;;;5074467;27;37680;-75
2022/05/16 00:11:46;;;;;;;10.15;2.67;;;18.10;99.90;;;;;;5075237;28;39215;-75
2022/05/16 00:14:12;;;;;;;7.43;2.17;;;18.10;99.90;;;;;;5074633;27;39103;-75
2022/05/16 00:16:38;;;;;;;6.68;2.10;;;18.10;99.90;;;;;;5047399;28;37806;-75
2022/05/16 00:19:05;;;;;;;12.60;2.92;;;18.10;99.90;;;;;;5054714;28;37417;-75
2022/05/16 00:21:31;;;;;;;9.43;2.78;;;18.00;99.90;;;;;;5045610;28;39714;-75
2022/05/16 00:23:57;;;;;;;8.93;3.05;;;18.00;99.90;;;;;;5049198;28;39146;-75
2022/05/16 00:26:23;;;;;;;6.88;2.53;;;18.00;99.90;;;;;;5051227;28;39604;-76
2022/05/16 00:28:49;;;;;;;6.35;2.70;;;17.90;99.90;;;;;;5051926;27;37197;-76
2022/05/16 00:31:16;;;;;;;9.93;2.50;;;17.90;99.90;;;;;;5051719;28;37529;-75
2022/05/16 00:33:42;;;;;;;7.82;2.58;;;17.80;99.90;;;;;;5046942;28;38578;-75
2022/05/16 00:36:08;;;;;;;8.15;3.03;;;17.90;99.90;;;;;;5048755;28;40077;-75
2022/05/16 00:38:34;;;;;;;10.35;2.75;;;17.80;99.90;;;;;;5088157;27;36376;-75
2022/05/16 00:41:03;;;;;;;7.50;3.13;;;17.80;99.90;;;;;;5068139;28;37474;-75
2022/05/16 00:43:58;;;;;;;9.30;2.58;;;17.70;99.90;;;;;;5071626;27;47143;-75
2022/05/16 00:46:29;;;;;;;12.82;3.53;;;17.70;99.90;;;;;;5055922;27;38906;-76
2022/05/16 00:48:56;;;;;;;10.63;3.30;;;17.60;99.90;;;;;;5046953;28;38020;-75
2022/05/16 00:51:37;;;;;;;7.90;2.85;;;17.60;99.90;;;;;;5046800;28;39363;-76
2022/05/16 00:54:16;;;;;;;7.70;2.45;;;17.60;99.90;;;;;;5074592;28;37322;-75
2022/05/16 00:56:44;;;;;;;10.45;3.03;;;17.60;99.90;;;;;;5071735;28;41062;-76
2022/05/16 00:59:10;;;;;;;9.75;2.70;;;17.50;99.90;;;;;;5065799;28;37672;-75
2022/05/16 01:07:07;;;;;;;10.88;3.53;;;17.40;99.90;;;;;;5071998;27;39585;-75
2022/05/16 01:09:33;;;;;;;9.45;3.13;;;17.30;99.90;;;;;;5105267;27;36662;-75
2022/05/16 01:12:00;;;;;;;8.43;2.92;;;17.30;99.90;;;;;;5070667;28;37825;-76
2022/05/16 01:14:46;;;;;;;8.48;2.65;;;17.30;99.90;;;;;;5072395;28;46634;-76
2022/05/16 01:17:13;;;;;;;10.20;2.85;;;17.20;99.90;;;;;;5075658;28;36457;-75
2022/05/16 01:19:39;;;;;;;7.22;3.33;;;17.20;99.90;;;;;;5077880;27;38658;-75
2022/05/16 01:22:31;;;;;;;7.30;2.92;;;17.10;99.90;;;;;;5069437;28;38932;-76
2022/05/16 01:25:04;;;;;;;8.80;3.00;;;17.10;99.90;;;;;;5065377;28;37338;-75
2022/05/16 01:27:40;;;;;;;10.93;3.58;;;17.00;99.90;;;;;;5081075;28;47169;-75
2022/05/16 01:30:07;;;;;;;10.05;3.58;;;17.10;99.90;;;;;;5068487;27;36963;-75
2022/05/16 01:32:33;;;;;;;12.02;3.17;;;17.00;99.90;;;;;;5043029;28;38524;-75
2022/05/16 01:34:59;;;;;;;12.15;2.97;;;16.90;99.90;;;;;;5051672;28;38591;-75
2022/05/16 01:38:18;;;;;;;6.30;2.60;;;16.90;99.90;;;;;;5048372;28;38311;-75
2022/05/16 01:40:11;;;;;;;13.23;3.08;;;16.90;99.90;;;;;;5052869;28;37928;-75
2022/05/16 01:42:37;;;;;;;10.93;3.17;;;16.80;99.90;;;;;;5056130;28;39454;-75
2022/05/16 01:45:04;;;;;;;8.60;3.13;;;16.80;99.90;;;;;;5081374;27;37249;-75
2022/05/16 01:47:33;;;;;;;8.70;3.15;;;16.80;99.90;;;;;;5054437;28;39397;-75
2022/05/16 01:49:59;;;;;;;7.32;3.10;;;16.80;99.90;;;;;;5080236;27;38144;-75
2022/05/16 01:52:25;;;;;;;11.10;3.28;;;16.70;99.90;;;;;;5045896;27;39966;-74
2022/05/16 01:54:52;;;;;;;8.55;3.08;;;16.70;99.90;;;;;;5054810;28;37969;-75
2022/05/16 01:57:18;;;;;;;11.10;3.13;;;16.70;99.90;;;;;;5072459;27;37556;-75
2022/05/16 01:59:44;;;;;;;7.82;2.70;;;16.60;99.90;;;;;;5068606;28;37778;-75
2022/05/16 02:02:10;;;;;;;10.15;3.28;;;16.50;99.90;;;;;;5066749;28;39896;-76
2022/05/16 02:04:36;;;;;;;8.55;2.92;;;16.50;99.90;;;;;;5049501;28;38664;-75
2022/05/16 02:07:02;;;;;;;7.35;3.20;;;16.40;99.90;;;;;;5048728;28;38497;-75
2022/05/16 02:09:28;;;;;;;10.48;3.10;;;16.40;99.90;;;;;;5051158;28;37860;-76
2022/05/16 02:11:54;;;;;;;11.20;3.35;;;16.40;99.90;;;;;;5056396;28;39630;-75
2022/05/16 02:14:22;;;;;;;9.25;3.10;;;16.40;99.90;;;;;;5053969;28;39254;-76
2022/05/16 02:16:49;;;;;;;8.75;3.33;;;16.40;99.90;;;;;;5047003;28;38250;-75
2022/05/16 02:19:15;;;;;;;9.32;3.15;;;16.30;99.90;;;;;;5073599;28;37609;-75
2022/05/16 02:24:38;;;;;;;9.85;3.00;;;16.20;99.90;;;;;;5062055;27;42183;-75
2022/05/16 02:27:06;;;;;;;10.18;3.10;;;16.20;99.90;;;;;;5061128;28;38926;-76
2022/05/16 02:29:34;;;;;;;10.65;3.33;;;16.20;99.90;;;;;;5061321;28;37763;-76
2022/05/16 02:32:02;;;;;;;8.30;2.80;;;16.20;99.90;;;;;;5066813;28;39806;-75
2022/05/16 02:34:28;;;;;;;6.95;2.83;;;16.20;99.90;;;;;;5062831;27;48874;-76
2022/05/16 02:36:54;;;;;;;7.43;3.10;;;16.20;99.90;;;;;;5074169;28;36701;-75
2022/05/16 02:39:20;;;;;;;7.35;2.90;;;16.20;99.90;;;;;;5061353;28;36884;-75
2022/05/16 02:41:46;;;;;;;8.25;3.10;;;16.30;99.90;;;;;;5044263;28;38406;-75
2022/05/16 02:44:13;;;;;;;9.95;2.92;;;16.30;99.90;;;;;;5038719;28;38677;-75
2022/05/16 02:46:41;;;;;;;9.82;3.05;;;16.30;99.90;;;;;;5040605;28;38589;-75
2022/05/16 02:49:07;;;;;;;8.27;3.38;;;16.30;99.90;;;;;;5046683;28;36721;-75
2022/05/16 02:51:34;;;;;;;12.63;3.25;;;16.30;99.90;;;;;;5046107;28;39366;-75
2022/05/16 02:54:00;;;;;;;11.93;3.88;;;16.40;99.90;;;;;;5049680;28;38785;-75
2022/05/16 02:56:27;;;;;;;8.13;2.92;;;16.50;99.90;;;;;;5046762;28;37249;-75
2022/05/16 02:58:53;;;;;;;8.63;3.42;;;16.50;99.90;;;;;;5083013;28;37653;-75
2022/05/16 03:01:19;;;;;;;9.70;3.42;;;16.50;99.90;;;;;;5047793;28;37755;-75
2022/05/16 03:03:45;;;;;;;11.60;4.05;;;16.50;99.90;;;;;;5045570;28;38692;-77
2022/05/16 03:06:12;;;;;;;7.53;3.55;;;16.50;99.90;;;;;;5047337;28;38251;-75
2022/05/16 03:08:38;;;;;;;13.23;4.03;;;16.50;99.90;;;;;;5049702;28;36550;-75
2022/05/16 03:11:05;;;;;;;9.60;3.00;;;16.40;99.90;;;;;;5052141;28;39060;-75
2022/05/16 03:13:32;;;;;;;9.15;3.60;;;16.40;99.90;;;;;;5089548;28;38059;-76
2022/05/16 03:15:59;;;;;;;8.95;3.38;;;16.50;99.90;;;;;;5059891;28;39407;-75
2022/05/16 03:18:29;;;;;;;7.75;3.38;;;16.50;99.90;;;;;;5057096;27;38233;-75
2022/05/16 03:20:55;;;;;;;10.30;3.58;;;16.50;99.90;;;;;;5054809;28;39234;-75
2022/05/16 03:23:21;;;;;;;10.65;3.75;;;16.40;99.90;;;;;;5061731;28;38541;-75
2022/05/16 03:25:47;;;;;;;10.43;3.70;;;16.40;99.90;;;;;;5065115;28;38315;-75
2022/05/16 03:28:13;;;;;;;8.48;3.20;;;16.40;99.90;;;;;;5053481;28;37401;-75
2022/05/16 03:30:40;;;;;;;9.05;4.00;;;16.40;99.90;;;;;;5058605;28;39642;-75
2022/05/16 03:33:06;;;;;;;10.02;3.70;;;16.40;99.90;;;;;;5055195;28;38352;-75
2022/05/16 03:35:32;;;;;;;9.52;4.68;;;16.30;99.90;;;;;;5062704;28;37654;-75
2022/05/16 03:37:58;;;;;;;8.88;3.63;;;16.30;99.90;;;;;;5069333;28;38265;-75
2022/05/16 03:40:43;;;;;;;9.57;3.70;;;16.30;99.90;;;;;;5072031;28;41062;-75
2022/05/16 03:43:10;;;;;;;8.95;3.97;;;16.30;99.90;;;;;;5077292;27;38427;-75
2022/05/16 03:45:37;;;;;;;8.88;3.47;;;16.20;99.90;;;;;;5069917;28;38448;-75
2022/05/16 03:48:05;;;;;;;11.55;4.15;;;16.20;99.90;;;;;;5082583;27;38016;-75
2022/05/16 03:50:32;;;;;;;12.00;3.75;;;16.10;99.90;;;;;;5077056;28;39546;-76
2022/05/16 03:53:00;;;;;;;15.85;4.38;;;16.10;99.90;;;;;;5078223;27;38424;-75
2022/05/16 03:55:28;;;;;;;7.75;3.63;;;16.00;99.90;;;;;;5088919;27;39871;-75
2022/05/16 03:57:54;;;;;;;9.15;3.50;;;16.00;99.90;;;;;;5081799;28;37632;-75
2022/05/16 04:00:21;;;;;;;9.85;4.15;;;16.00;99.90;;;;;;5070957;28;39908;-75
2022/05/16 04:02:47;;;;;;;12.15;3.88;;;16.00;99.90;;;;;;5083380;28;38298;-76
2022/05/16 04:05:21;;;;;;;8.68;3.40;;;16.00;99.90;;;;;;5074355;28;37040;-76
2022/05/16 04:07:47;;;;;;;8.95;3.35;;;16.10;99.90;;;;;;5079146;27;36968;-76
2022/05/16 04:10:14;;;;;;;10.68;4.13;;;16.10;99.90;;;;;;5070995;27;39506;-77
2022/05/16 04:12:41;;;;;;;7.97;3.67;;;16.20;99.90;;;;;;5065513;28;38535;-76
2022/05/16 04:15:10;;;;;;;11.35;4.20;;;16.20;99.90;;;;;;5079255;27;38545;-75
2022/05/16 04:17:36;;;;;;;11.10;3.70;;;16.20;99.90;;;;;;5072219;28;39663;-76
2022/05/16 04:20:03;;;;;;;12.48;4.80;;;16.30;99.90;;;;;;5069030;27;37827;-75
2022/05/16 04:22:30;;;;;;;10.05;3.60;;;16.30;99.90;;;;;;5066319;28;46950;-76
2022/05/16 04:24:57;;;;;;;7.50;3.78;;;16.30;99.90;;;;;;5068345;27;39018;-76
2022/05/16 04:27:23;;;;;;;11.52;3.92;;;16.30;99.90;;;;;;5068801;28;38511;-76
2022/05/16 04:29:49;;;;;;;9.38;4.20;;;16.30;99.90;;;;;;5068634;28;39576;-76
2022/05/16 04:32:15;;;;;;;8.75;3.83;;;16.40;99.90;;;;;;5071162;28;39065;-76
2022/05/16 04:34:41;;;;;;;10.60;4.57;;;16.40;99.90;;;;;;5071945;28;38361;-76
2022/05/16 04:37:07;;;;;;;11.27;4.43;;;16.40;99.90;;;;;;5073515;28;37189;-76
2022/05/16 04:39:33;;;;;;;10.40;4.60;;;16.50;99.90;;;;;;5069497;28;39857;-76
2022/05/16 04:44:44;;;;;;;8.32;4.38;;;16.60;99.90;;;;;;5076880;28;50694;-75
2022/05/16 04:47:11;;;;;;;12.52;4.10;;;16.70;99.90;;;;;;5072954;28;37931;-76
2022/05/16 04:49:37;;;;;;;11.52;5.07;;;16.70;99.90;;;;;;5090043;27;40436;-75
2022/05/16 04:52:03;;;;;;;11.57;4.25;;;16.80;99.90;;;;;;5079029;27;37364;-75
2022/05/16 04:54:30;;;;;;;10.90;3.85;;;16.90;99.90;;;;;;5076449;28;36243;-76
2022/05/16 04:56:56;;;;;;;9.85;4.38;;;16.90;99.90;;;;;;5074402;28;37556;-76
2022/05/16 04:59:22;;;;;;;8.10;4.00;;;16.90;99.90;;;;;;5076094;27;38503;-75
2022/05/16 05:01:49;;;;;;;6.20;3.35;;;16.90;99.90;;;;;;5075787;28;39278;-75
2022/05/16 05:04:15;;;;;;;9.48;4.00;;;16.90;99.90;;;;;;5083705;27;36687;-76
2022/05/16 05:06:42;;;;;;;7.63;4.60;;;16.90;99.90;;;;;;5075500;28;37614;-76
2022/05/16 05:09:08;;;;;;;8.23;3.95;;;16.80;99.90;;;;;;5065323;28;39611;-76
2022/05/16 05:14:34;;;;;;;7.07;4.38;;;16.90;99.90;;;;;;5072335;27;39772;-76
2022/05/16 05:17:09;;;;;;;9.60;4.20;;;16.90;99.90;;;;;;5068285;28;38005;-76
2022/05/16 05:19:39;;;;;;;7.95;4.57;;;16.80;99.90;;;;;;5079936;27;48933;-73
2022/05/16 05:22:06;;;;;;;9.13;4.45;;;16.80;99.90;;;;;;5076256;28;38539;-75
2022/05/16 05:24:32;;;;;;;12.23;5.07;;;16.80;99.90;;;;;;5064311;27;38724;-75
2022/05/16 05:26:59;;;;;;;15.93;5.47;;;16.80;99.90;;;;;;5066826;28;36638;-76
2022/05/16 05:29:25;;;;;;;11.50;5.20;;;16.80;99.90;;;;;;5071073;27;38317;-76
2022/05/16 05:31:51;;;;;;;8.52;4.93;;;16.80;99.90;;;;;;5076954;28;37370;-76
2022/05/16 05:34:18;;;;;;;7.82;4.22;;;16.80;99.90;;;;;;5080949;27;36551;-75
2022/05/16 05:36:44;;;;;;;14.45;5.13;;;16.80;99.90;;;;;;5069040;28;35907;-75
2022/05/16 05:39:16;;;;;;;11.57;5.15;;;16.90;99.90;;;;;;5070349;28;37970;-75
2022/05/16 05:41:43;;;;;;;;;;;16.90;99.90;;;;;;5102983;27;39637;-75
2022/05/16 05:44:09;;;;;;;8.45;4.47;;;16.90;99.90;;;;;;5076878;28;39142;-75
2022/05/16 05:46:38;;;;;;;8.38;4.95;;;17.00;99.90;;;;;;5067422;28;36013;-77
2022/05/16 05:49:05;;;;;;;10.55;5.20;;;17.00;99.90;;;;;;5068441;27;38123;-74
2022/05/16 05:51:31;;;;;;;11.45;4.65;;;17.10;99.90;;;;;;5072021;28;38483;-79
2022/05/16 05:53:57;;;;;;;13.68;4.88;;;17.10;99.90;;;;;;5082812;28;37036;-78
2022/05/16 05:56:24;;;;;;;12.90;4.75;;;17.10;99.90;;;;;;5074933;28;37264;-80
2022/05/16 05:58:50;;;;;;;12.00;4.93;;;17.10;99.90;;;;;;5082346;28;38750;-79
2022/05/16 06:01:16;;;;;;;7.55;5.32;;;17.20;99.90;;;;;;5077549;28;38204;-81
2022/05/16 06:03:42;;;;;;;11.50;5.15;;;17.20;99.90;;;;;;5076400;27;38256;-79
2022/05/16 06:06:08;;;;;;;9.10;5.10;;;17.30;99.90;;;;;;5078547;28;38171;-78
2022/05/16 06:08:35;;;;;;;10.48;4.88;;;17.30;99.90;;;;;;5079691;28;39476;-79
2022/05/16 06:11:01;;;;;;;7.72;4.53;;;17.30;99.90;;;;;;5079529;28;39224;-77
2022/05/16 06:13:28;;;;;;;6.38;4.60;;;17.40;99.90;;;;;;5062505;28;39889;-78
2022/05/16 06:15:55;;;;;;;9.23;4.53;;;17.40;99.90;;;;;;5077272;28;37694;-78
2022/05/16 06:18:22;;;;;;;7.95;4.95;;;17.50;99.90;;;;;;5073726;27;39243;-78
2022/05/16 06:20:48;;;;;;;12.18;5.13;;;17.60;99.90;;;;;;5090778;27;39308;-78
2022/05/16 06:23:14;;;;;;;9.63;4.85;;;17.60;99.90;;;;;;5081385;28;38399;-78
2022/05/16 06:25:42;;;;;;;7.70;4.60;;;17.60;99.90;;;;;;5091242;27;39018;-78
2022/05/16 06:28:19;;;;;;;9.15;4.65;;;17.90;99.90;;;;;;5070289;28;39793;-78
2022/05/16 06:30:47;;;;;;;11.70;5.05;;;18.00;99.90;;;;;;5076768;28;38907;-79
2022/05/16 06:33:15;;;;;;;11.55;4.80;;;18.30;99.90;;;;;;5076825;27;39496;-80
2022/05/16 06:35:42;;;;;;;10.70;5.50;;;18.60;99.90;;;;;;5077410;28;37705;-79
2022/05/16 06:38:13;;;;;;;10.48;5.10;;;18.80;99.90;;;;;;5085628;27;39498;-78
2022/05/16 06:40:42;;;;;;;11.02;5.15;;;19.20;99.90;;;;;;5078311;27;38659;-78
2022/05/16 06:43:09;;;;;;;6.53;4.50;;;19.60;99.90;;;;;;5080411;27;38098;-78
2022/05/16 06:45:36;;;;;;;8.90;4.95;;;19.50;99.90;;;;;;5077627;28;37782;-79
2022/05/16 06:48:02;;;;;;;7.53;4.57;;;19.50;99.90;;;;;;5076663;27;40744;-79
2022/05/16 06:50:30;;;;;;;10.15;4.13;;;19.50;99.90;;;;;;5064908;28;39544;-81
2022/05/16 06:52:57;;;;;;;8.98;4.28;;;19.70;99.90;;;;;;5072903;28;38275;-81
2022/05/16 06:55:23;;;;;;;6.47;4.28;;;19.70;99.90;;;;;;5068365;28;37733;-78
2022/05/16 06:57:50;;;;;;;10.13;4.35;;;19.60;99.90;;;;;;5082830;28;39025;-78
2022/05/16 07:00:16;;;;;;;8.30;4.47;;;19.70;99.90;;;;;;5081286;28;38361;-79
2022/05/16 07:02:42;;;;;;;7.95;4.15;;;19.80;99.90;;;;;;5076491;28;38255;-79
2022/05/16 07:05:09;;;;;;;7.88;3.72;;;19.90;99.90;;;;;;5075018;27;37294;-78
2022/05/16 07:07:35;;;;;;;8.50;4.18;;;19.90;99.90;;;;;;5082239;28;37608;-77
2022/05/16 07:10:03;;;;;;;6.03;3.78;;;20.00;99.90;;;;;;5075522;27;38488;-76
2022/05/16 07:12:29;;;;;;;7.85;3.63;;;20.10;99.90;;;;;;5089805;27;39694;-77
2022/05/16 07:14:55;;;;;;;6.30;3.60;;;20.30;99.90;;;;;;5073383;28;36001;-78
2022/05/16 07:17:21;;;;;;;7.28;3.83;;;20.30;99.90;;;;;;5080454;28;38855;-79
2022/05/16 07:19:49;;;;;;;8.18;3.85;;;20.60;99.90;;;;;;5077394;27;39430;-78
2022/05/16 07:22:22;;;;;;;6.90;3.90;;;20.70;99.90;;;;;;5075132;28;39615;-78
2022/05/16 07:24:51;;;;;;;8.18;3.50;;;20.90;99.90;;;;;;5074281;27;38118;-79
2022/05/16 07:30:05;;;;;;;5.35;3.10;;;21.20;99.90;;;;;;5069708;28;38871;-79
2022/05/16 07:32:42;;;;;;;7.43;3.53;;;21.50;99.90;;;;;;5086654;28;38542;-78
2022/05/16 07:35:19;;;;;;;5.78;3.03;;;21.60;99.90;;;;;;5081301;27;37451;-78
2022/05/16 07:37:45;;;;;;;7.70;2.70;;;21.80;99.90;;;;;;5079260;27;39823;-79
2022/05/16 07:40:13;;;;;;;8.90;3.22;;;22.20;99.90;;;;;;5083993;27;39667;-79
2022/05/16 07:42:40;;;;;;;6.18;2.50;;;22.50;99.90;;;;;;5072002;28;37892;-79
2022/05/16 07:45:07;;;;;;;4.30;2.38;;;23.00;99.90;;;;;;5091327;27;38226;-78
2022/05/16 07:47:33;;;;;;;6.13;2.20;;;23.40;99.90;;;;;;5076503;28;39658;-79
2022/05/16 07:50:00;;;;;;;5.10;2.05;;;23.80;99.90;;;;;;5072066;28;38964;-80
2022/05/16 07:52:28;;;;;;;4.10;2.00;;;24.10;99.90;;;;;;5074800;28;37817;-78
2022/05/16 07:54:54;;;;;;;3.30;1.92;;;24.40;99.90;;;;;;5074279;27;36275;-78
2022/05/16 07:57:21;;;;;;;4.97;1.92;;;24.70;99.90;;;;;;5087872;28;39170;-79
2022/05/16 08:00:12;;;;;;;7.15;1.70;;;24.60;99.90;;;;;;5076161;27;39265;-79
2022/05/16 08:02:39;;;;;;;5.15;2.15;;;24.70;99.90;;;;;;5079996;28;46992;-78
2022/05/16 08:05:10;;;;;;;6.03;1.98;;;25.00;99.90;;;;;;5082893;27;37731;-78
2022/05/16 08:10:29;;;;;;;3.20;1.70;;;25.10;99.90;;;;;;5072736;28;39039;-78
2022/05/16 08:10:29;;;;;;;4.72;1.80;;;25.10;99.90;;;;;;5075719;27;38026;-79
2022/05/16 08:12:56;;;;;;;9.35;1.90;;;25.10;99.90;;;;;;5083632;28;38355;-79
2022/05/16 08:15:22;;;;;;;6.20;2.00;;;25.60;99.90;;;;;;5080918;27;37320;-78
2022/05/16 08:17:49;;;;;;;4.68;1.80;;;25.70;99.90;;;;;;5076677;28;39330;-77
2022/05/16 08:20:17;;;;;;;3.33;1.80;;;26.00;99.90;;;;;;5061278;27;38461;-79
2022/05/16 08:22:43;;;;;;;7.18;2.03;;;25.80;99.90;;;;;;5062157;27;39104;-78
2022/05/16 08:25:09;;;;;;;5.15;2.10;;;25.90;99.90;;;;;;5081200;27;37333;-79
2022/05/16 08:27:35;;;;;;;3.08;1.63;;;26.20;99.90;;;;;;5089712;28;39833;-79
2022/05/16 08:30:03;;;;;;;5.95;1.90;;;26.20;99.90;;;;;;5089256;28;37274;-77
2022/05/16 08:32:29;;;;;;;14.68;3.45;;;26.20;99.90;;;;;;5084879;28;37940;-79
2022/05/16 08:35:02;;;;;;;8.20;2.55;;;26.60;99.90;;;;;;5085940;27;36989;-79
2022/05/16 08:40:15;;;;;;;4.63;1.90;;;26.60;99.90;;;;;;5076720;28;39185;-80
2022/05/16 08:42:47;;;;;;;5.40;2.28;;;26.60;99.90;;;;;;5080289;28;38337;-80
2022/05/16 08:45:33;;;;;;;2.90;1.60;;;26.50;99.90;;;;;;5071039;27;39022;-79
2022/05/16 08:48:41;;;;;;;3.53;1.50;;;26.50;99.90;;;;;;5077899;27;38722;-78
2022/05/16 08:51:19;;;;;;;4.10;1.60;;;26.60;99.90;;;;;;5062771;28;47380;-80
2022/05/16 08:53:54;;;;;;;6.82;1.70;;;26.00;99.90;;;;;;5081085;28;38332;-79
2022/05/16 08:56:26;;;;;;;6.05;2.15;;;25.60;99.90;;;;;;5069328;27;37156;-80
2022/05/16 08:58:58;;;;;;;4.82;1.70;;;25.10;99.90;;;;;;5060589;28;39650;-80
2022/05/16 09:01:34;;;;;;;5.00;1.98;;;24.70;99.90;;;;;;5059768;28;39320;-79
2022/05/16 09:04:03;;;;;;;5.25;1.92;;;24.60;99.90;;;;;;5053691;28;37959;-80
2022/05/16 09:06:55;;;;;;;10.05;2.25;;;24.30;99.90;;;;;;5069912;28;48719;-78
2022/05/16 09:09:27;;;;;;;6.85;2.05;;;24.20;99.90;;;;;;5073615;27;39588;-79
2022/05/16 09:12:02;;;;;;;;;;;24.70;99.90;;;;;;5076523;27;38319;-80
2022/05/16 09:14:52;;;;;;;7.15;2.13;;;25.10;99.90;;;;;;5081961;28;47157;-79
2022/05/16 09:17:34;;;;;;;3.03;2.00;;;25.70;99.90;;;;;;5075017;28;36346;-79
2022/05/16 09:20:18;;;;;;;8.45;2.35;;;26.00;99.90;;;;;;5074703;28;38895;-79
2022/05/16 09:23:18;;;;;;;4.05;2.13;;;25.70;99.90;;;;;;5075548;28;48551;-78
2022/05/16 09:25:56;;;;;;;6.95;2.20;;;25.40;99.90;;;;;;5078651;28;47409;-78
2022/05/16 09:28:36;;;;;;;4.90;2.10;;;25.40;99.90;;;;;;5076835;28;36754;-78
2022/05/16 09:31:13;;;;;;;4.18;1.92;;;25.70;99.90;;;;;;5067250;28;40278;-77
2022/05/16 09:33:47;;;;;;;8.90;2.38;;;25.60;99.90;;;;;;5078050;27;38697;-78
2022/05/16 09:36:18;;;;;;;4.03;2.15;;;25.00;99.90;;;;;;5089006;27;37826;-78
2022/05/16 09:38:44;;;;;;;4.85;2.50;;;24.10;99.90;;;;;;5086229;27;38479;-79
2022/05/16 09:41:16;;;;;;;5.47;2.22;;;23.50;99.90;;;;;;5086870;28;39853;-78
2022/05/16 09:43:50;;;;;;;6.35;2.42;;;23.40;99.90;;;;;;5064307;27;38369;-78
2022/05/16 09:46:37;;;;;;;6.95;2.67;;;23.30;99.90;;;;;;5065355;27;38007;-78
2022/05/16 09:49:18;;;;;;;6.43;2.45;;;23.20;99.90;;;;;;5083388;27;40507;-77
2022/05/16 09:51:51;;;;;;;5.60;2.78;;;22.70;99.90;;;;;;5078083;28;39656;-78
2022/05/16 09:54:31;;;;;;;6.65;3.50;;;22.20;99.90;;;;;;5086434;28;40578;-78
2022/05/16 09:57:03;;;;;;;10.20;3.97;;;21.60;99.90;;;;;;5077619;28;38563;-80
2022/05/16 10:00:21;;;;;;;6.85;4.30;;;21.30;99.90;;;;;;5056862;28;48521;-79
2022/05/16 10:03:22;;;;;;;9.73;4.28;;;21.30;99.90;;;;;;5056003;28;47039;-78
2022/05/16 10:05:51;;;;;;;9.35;4.95;;;21.40;99.90;;;;;;5045740;28;47589;-78
2022/05/16 10:08:29;;;;;;;11.43;4.50;;;21.60;99.90;;;;;;5066699;27;37627;-79
2022/05/16 10:10:57;;;;;;;8.23;5.22;;;22.00;99.90;;;;;;5059587;27;37334;-79
2022/05/16 10:13:23;;;;;;;10.32;5.80;;;22.10;99.90;;;;;;5069747;27;39801;-78
2022/05/16 10:15:52;;;;;;;10.68;5.65;;;22.00;99.90;;;;;;5065028;28;39185;-77
2022/05/16 10:18:22;;;;;;;9.52;5.25;;;22.00;99.90;;;;;;5062509;28;39425;-80
2022/05/16 10:21:03;;;;;;;9.63;5.35;;;21.80;99.90;;;;;;5058517;28;38629;-77
2022/05/16 10:23:34;;;;;;;10.05;5.68;;;21.70;99.90;;;;;;5058568;27;48462;-78
2022/05/16 10:26:06;;;;;;;9.88;6.20;;;21.80;99.90;;;;;;5056380;28;38486;-76
2022/05/16 10:28:46;;;;;;;11.60;7.00;;;21.70;99.90;;;;;;5062459;28;48191;-78
2022/05/16 10:34:14;;;;;;;11.75;7.03;;;21.60;99.90;;;;;;5062651;28;39797;-86
2022/05/16 10:36:47;;;;;;;15.38;7.88;;;21.30;99.90;;;;;;5076599;28;40035;-78
2022/05/16 10:39:18;;;;;;;14.43;8.77;;;21.30;99.90;;;;;;5075941;27;37902;-77
2022/05/16 10:42:06;;;;;;;16.63;9.38;;;21.40;99.90;;;;;;5072228;28;38391;-79
2022/05/16 10:44:37;;;;;;;24.33;15.30;;;21.30;99.90;;;;;;5063359;28;47815;-79
2022/05/16 10:47:31;;;;;;;23.52;15.27;;;20.90;99.90;;;;;;5055286;28;39452;-77
2022/05/16 10:50:20;;;;;;;26.27;16.17;;;20.70;99.90;;;;;;5050853;28;40148;-77
2022/05/16 10:53:04;;;;;;;16.13;12.50;;;20.60;99.90;;;;;;5073126;27;47555;-78
2022/05/16 10:55:55;;;;;;;21.73;12.77;;;20.40;99.90;;;;;;5078644;28;48687;-79
2022/05/16 10:58:40;;;;;;;18.08;10.98;;;20.40;99.90;;;;;;5081327;28;39229;-78
2022/05/16 11:01:35;;;;;;;14.80;8.68;;;20.00;99.90;;;;;;5085733;28;37708;-78
2022/05/16 11:04:19;;;;;;;16.08;8.07;;;19.80;99.90;;;;;;5049197;28;38566;-79
2022/05/16 11:07:25;;;;;;;14.93;7.03;;;19.60;99.90;;;;;;5090592;28;47487;-77
2022/05/16 11:10:02;;;;;;;16.08;7.60;;;19.10;99.90;;;;;;5078138;27;48469;-79
2022/05/16 11:13:02;;;;;;;20.15;9.18;;;18.90;99.90;;;;;;5074995;28;47035;-78
2022/05/16 11:15:38;;;;;;;25.80;10.77;;;18.80;99.90;;;;;;5074138;28;47382;-76
2022/05/16 11:18:30;;;;;;;25.33;11.50;;;18.20;99.90;;;;;;5076335;28;39741;-75
2022/05/16 11:21:17;;;;;;;27.15;11.45;;;17.70;99.90;;;;;;5059858;28;38640;-76
2022/05/16 11:23:43;;;;;;;22.40;11.38;;;17.30;99.90;;;;;;5083772;27;48540;-76
2022/05/16 11:26:24;;;;;;;29.52;13.55;;;17.20;99.90;;;;;;5071493;28;36043;-76
2022/05/16 11:32:22;;;;;;;27.90;13.63;;;17.10;99.90;;;;;;5075002;28;49413;-76
2022/05/16 11:35:07;;;;;;;25.65;12.85;;;17.30;99.90;;;;;;5076337;28;47872;-77
2022/05/16 11:37:42;;;;;;;20.17;10.27;;;17.30;99.90;;;;;;5067967;28;47176;-77
2022/05/16 11:40:28;;;;;;;23.60;10.00;;;17.30;99.90;;;;;;5080860;28;39881;-78
2022/05/16 11:43:05;;;;;;;22.60;9.65;;;17.60;99.90;;;;;;5076635;28;40190;-77
2022/05/16 11:46:09;;;;;;;21.48;8.88;;;18.00;99.90;;;;;;5078575;28;47126;-77
2022/05/16 11:48:51;;;;;;;17.77;9.80;;;18.80;99.90;;;;;;5084731;27;47027;-77
2022/05/16 11:51:27;;;;;;;23.05;9.52;;;19.30;99.90;;;;;;5076862;28;39653;-77
2022/05/16 11:53:58;;;;;;;21.95;9.27;;;19.30;99.90;;;;;;5081263;28;38745;-78
2022/05/16 12:02:16;;;;;;;19.77;7.78;;;19.30;99.90;;;;;;5073819;28;39958;-77
2022/05/16 12:04:45;;;;;;;14.52;6.90;;;19.50;99.90;;;;;;5083951;27;39982;-77
2022/05/16 12:07:40;;;;;;;15.02;6.05;;;19.90;99.90;;;;;;5073160;28;38184;-78
2022/05/16 12:10:15;;;;;;;13.18;5.63;;;20.00;99.90;;;;;;5078872;27;37372;-79
2022/05/16 12:13:09;;;;;;;16.25;5.03;;;20.10;99.90;;;;;;5083592;28;40523;-79
2022/05/16 12:15:35;;;;;;;11.98;4.93;;;20.20;99.90;;;;;;5085729;27;47236;-79
2022/05/16 12:18:04;;;;;;;14.25;6.53;;;20.30;99.90;;;;;;5067742;28;38771;-78
2022/05/16 12:20:58;;;;;;;15.35;6.20;;;20.30;99.90;;;;;;5079147;28;46984;-77
2022/05/16 12:23:58;;;;;;;18.08;6.85;;;20.50;99.90;;;;;;5081350;28;40349;-78
2022/05/16 12:26:27;;;;;;;17.55;6.57;;;20.50;99.90;;;;;;5043427;28;39683;-76
2022/05/16 12:29:08;;;;;;;16.55;5.88;;;20.50;99.90;;;;;;5086325;28;39804;-76
2022/05/16 12:31:49;;;;;;;17.90;5.90;;;20.70;99.90;;;;;;5070502;27;48624;-77
2022/05/16 12:34:36;;;;;;;15.25;5.50;;;21.20;99.90;;;;;;5078069;28;38665;-76
2022/05/16 12:37:09;;;;;;;13.07;5.72;;;21.50;99.90;;;;;;5075420;28;37633;-76
2022/05/16 12:40:10;;;;;;;15.27;5.80;;;21.50;99.90;;;;;;5073770;27;38064;-76
2022/05/16 12:43:14;;;;;;;11.50;4.82;;;21.50;99.90;;;;;;5078775;28;47758;-78
2022/05/16 12:46:07;;;;;;;14.38;5.00;;;21.20;99.90;;;;;;5078506;28;47149;-78
2022/05/16 12:48:49;;;;;;;14.73;5.05;;;20.80;99.90;;;;;;5083634;28;47425;-78
2022/05/16 12:51:33;;;;;;;12.27;4.47;;;20.60;99.90;;;;;;5083082;27;38272;-76
2022/05/16 12:54:08;;;;;;;11.57;4.50;;;20.60;99.90;;;;;;5084422;27;37332;-77
2022/05/16 12:56:50;;;;;;;14.02;5.45;;;20.90;99.90;;;;;;5083243;28;48399;-78
2022/05/16 12:59:34;;;;;;;;;;;21.30;99.90;;;;;;5083949;28;39224;-77
2022/05/16 13:02:03;;;;;;;14.23;4.40;;;21.50;99.90;;;;;;5085428;28;38158;-79
2022/05/16 13:04:35;;;;;;;9.95;3.88;;;21.50;99.90;;;;;;5082719;28;48409;-76
2022/05/16 13:07:01;;;;;;;;;;;21.40;99.90;;;;;;5085145;27;38752;-76
2022/05/16 13:09:48;;;;;;;13.25;4.38;;;21.30;99.90;;;;;;5081518;28;37365;-77
2022/05/16 13:12:44;;;;;;;10.38;4.03;;;21.10;99.90;;;;;;5079102;28;38290;-75
2022/05/16 13:15:34;;;;;;;16.17;4.28;;;20.80;99.90;;;;;;5076333;27;37112;-76
2022/05/16 13:18:01;;;;;;;10.77;4.95;;;20.90;99.90;;;;;;5079992;28;38903;-77
2022/05/16 13:20:38;;;;;;;10.57;4.65;;;21.00;99.90;;;;;;5080502;27;49274;-77
2022/05/16 13:23:04;;;;;;;11.05;4.63;;;21.20;99.90;;;;;;5079236;27;37276;-75
2022/05/16 13:25:31;;;;;;;12.68;4.10;;;21.30;99.90;;;;;;5081868;28;37116;-77
2022/05/16 13:30:56;;;;;;;16.17;4.78;;;21.40;99.90;;;;;;5005375;28;49323;-77
2022/05/16 13:33:30;;;;;;;18.23;4.60;;;21.70;99.90;;;;;;5064421;28;38542;-76
2022/05/16 13:36:21;;;;;;;14.48;4.10;;;21.70;99.90;;;;;;5060125;27;37344;-76
2022/05/16 13:39:15;;;;;;;13.15;3.70;;;21.50;99.90;;;;;;5067505;28;48664;-76
2022/05/16 13:41:41;;;;;;;8.32;3.15;;;21.40;99.90;;;;;;5066370;28;48659;-76
2022/05/16 13:44:12;;;;;;;11.75;3.53;;;21.20;99.90;;;;;;5073159;27;37025;-75